Time;durP1;ratioP1;P1;durP2;ratioP2;P2;SDS_P1;SDS_P2;PMS_P1;PMS_P2;Temp;Humidity;BMP_temperature;BMP_pressure;BME280_temperature;BME280_humidity;BME280_pressure;Samples;Min_cycle;Max_cycle;Signal;HPM_P1;HPM_P2
2023/05/01 00:01:37;;;;;;;13.73;5.23;;;;;;;8.99;65.68;100639.04;1447217;89;21618;-78
2023/05/01 00:04:04;;;;;;;7.20;3.57;;;;;;;8.96;65.64;100634.02;1462943;89;22402;-77
2023/05/01 00:06:32;;;;;;;7.70;3.27;;;;;;;8.95;65.78;100641.11;1459668;89;21427;-79
2023/05/01 00:08:58;;;;;;;12.50;5.10;;;;;;;8.94;65.79;100643.38;1444477;89;21485;-79
2023/05/01 00:11:25;;;;;;;6.93;3.67;;;;;;;8.91;66.08;100642.81;1463231;89;22542;-79
2023/05/01 00:13:53;;;;;;;5.90;3.87;;;;;;;8.82;65.81;100644.44;1475580;87;21376;-78
2023/05/01 00:16:19;;;;;;;11.70;4.53;;;;;;;8.79;65.92;100642.06;1482071;87;23410;-79
2023/05/01 00:18:45;;;;;;;12.23;3.03;;;;;;;8.74;65.45;100646.89;1486496;87;21524;-79
2023/05/01 00:21:11;;;;;;;11.53;3.63;;;;;;;8.70;65.07;100645.00;1464303;87;21486;-79
2023/05/01 00:23:37;;;;;;;7.70;3.43;;;;;;;8.68;65.07;100636.86;1463396;87;21546;-80
2023/05/01 00:26:04;;;;;;;9.37;3.10;;;;;;;8.68;65.07;100640.81;1463662;87;22426;-80
2023/05/01 00:28:30;;;;;;;6.37;3.73;;;;;;;8.66;64.74;100639.64;1483887;87;22286;-80
2023/05/01 00:30:57;;;;;;;4.80;3.13;;;;;;;8.63;64.63;100644.32;1485807;87;21642;-80
2023/05/01 00:33:23;;;;;;;9.40;3.57;;;;;;;8.58;64.50;100644.73;1461340;87;21584;-80
2023/05/01 00:35:50;;;;;;;5.47;2.97;;;;;;;8.56;64.74;100649.29;1485500;87;21398;-79
2023/05/01 00:38:16;;;;;;;9.67;3.47;;;;;;;8.49;65.00;100648.98;1487241;87;21403;-79
2023/05/01 00:40:44;;;;;;;7.10;3.27;;;;;;;8.44;65.05;100643.24;1469010;88;21507;-79
2023/05/01 00:43:12;;;;;;;9.13;2.93;;;;;;;8.38;64.84;100635.81;1426310;88;21507;-79
2023/05/01 00:45:41;;;;;;;6.63;3.03;;;;;;;8.38;64.38;100648.17;1379480;89;22403;-78
2023/05/01 00:48:09;;;;;;;9.17;4.60;;;;;;;8.40;64.61;100647.11;1548643;88;22285;-79
2023/05/01 00:50:35;;;;;;;10.17;3.57;;;;;;;8.40;64.67;100652.84;1401721;88;21346;-79
2023/05/01 00:53:02;;;;;;;6.10;3.53;;;;;;;8.36;64.48;100656.20;1390375;88;21442;-79
2023/05/01 00:55:32;;;;;;;8.93;4.10;;;;;;;8.32;64.74;100654.80;1402377;87;21441;-78
2023/05/01 00:57:59;;;;;;;8.15;3.50;;;;;;;8.23;65.03;100648.48;1398338;87;22137;-78
2023/05/01 01:00:25;;;;;;;7.43;2.87;;;;;;;8.13;65.49;100656.30;1389144;88;21397;-77
2023/05/01 01:02:51;;;;;;;7.27;3.20;;;;;;;8.03;65.78;100648.80;1402768;87;22306;-78
2023/05/01 01:05:20;;;;;;;7.73;4.03;;;;;;;8.00;66.04;100650.83;1403132;88;21368;-78
2023/05/01 01:07:57;;;;;;;8.60;4.60;;;;;;;7.96;66.08;100654.20;1562664;88;21397;-79
2023/05/01 01:10:45;;;;;;;7.70;3.93;;;;;;;7.92;66.10;100656.75;1537232;87;21625;-78
2023/05/01 01:13:26;;;;;;;6.43;3.33;;;;;;;7.91;66.02;100664.28;1475819;88;21575;-79
2023/05/01 01:16:18;;;;;;;7.05;3.08;;;;;;;7.90;66.53;100666.56;1473290;88;21463;-79
2023/05/01 01:19:24;;;;;;;6.50;3.53;;;;;;;7.87;66.33;100668.13;1486512;88;21427;-79
2023/05/01 01:21:55;;;;;;;9.63;3.67;;;;;;;7.82;65.43;100672.94;1480446;88;22469;-79
2023/05/01 01:24:29;;;;;;;6.85;3.08;;;;;;;7.78;65.28;100668.88;1435325;91;21561;-79
2023/05/01 01:27:36;;;;;;;7.00;4.43;;;;;;;7.75;65.27;100666.02;1473955;88;21597;-80
2023/05/01 01:30:26;;;;;;;8.43;3.67;;;;;;;7.69;65.64;100667.34;1481866;88;21471;-79
2023/05/01 01:33:16;;;;;;;12.30;3.83;;;;;;;7.60;65.73;100677.30;1478060;88;22473;-79
2023/05/01 01:35:47;;;;;;;4.53;2.70;;;;;;;7.50;65.98;100672.39;1425412;91;21838;-77
2023/05/01 01:38:22;;;;;;;7.20;3.50;;;;;;;7.39;66.32;100673.27;1474002;88;21478;-78
2023/05/01 01:40:56;;;;;;;5.87;3.07;;;;;;;7.31;66.67;100672.17;1492412;88;21548;-77
2023/05/01 01:43:25;;;;;;;8.10;3.10;;;;;;;7.26;66.79;100678.30;1399715;88;21560;-78
2023/05/01 01:45:55;;;;;;;7.53;3.20;;;;;;;7.23;66.51;100676.73;1379561;90;22322;-77
2023/05/01 01:48:27;;;;;;;8.28;2.72;;;;;;;7.24;66.71;100672.65;1529522;88;21491;-78
2023/05/01 01:50:57;;;;;;;6.80;3.00;;;;;;;7.24;66.58;100679.23;1479160;88;21507;-78
2023/05/01 01:53:25;;;;;;;6.97;2.83;;;;;;;7.24;66.28;100679.23;1481970;88;21618;-77
2023/05/01 01:55:54;;;;;;;7.27;3.60;;;;;;;7.26;66.30;100678.30;1405304;88;21441;-77
2023/05/01 01:58:25;;;;;;;10.43;2.90;;;;;;;7.20;65.94;100672.55;1357042;91;21398;-78
2023/05/01 02:00:52;;;;;;;;;;;;;;;7.22;66.25;100673.27;1465251;89;21486;-79
2023/05/01 02:03:20;;;;;;;8.10;3.47;;;;;;;7.16;66.15;100676.39;1400614;88;20804;-79
2023/05/01 02:05:50;;;;;;;4.37;2.63;;;;;;;7.12;66.50;100677.56;1423179;88;21470;-79
2023/05/01 02:08:17;;;;;;;10.80;3.57;;;;;;;7.05;66.66;100673.75;1458665;88;21691;-79
2023/05/01 02:10:46;;;;;;;9.13;3.07;;;;;;;6.99;66.41;100672.43;1429941;88;21611;-80
2023/05/01 02:13:14;;;;;;;11.90;4.87;;;;;;;6.97;66.48;100674.81;1430003;91;22359;-80
2023/05/01 02:15:41;;;;;;;9.20;3.17;;;;;;;6.95;66.38;100678.03;1433580;88;21441;-79
2023/05/01 02:18:08;;;;;;;6.10;3.03;;;;;;;6.94;66.38;100680.31;1482408;88;21493;-79
2023/05/01 02:20:36;;;;;;;15.33;3.67;;;;;;;6.89;66.60;100682.45;1358379;91;21576;-79
2023/05/01 02:23:03;;;;;;;8.87;2.90;;;;;;;6.85;66.63;100683.17;1379722;89;21375;-79
2023/05/01 02:25:33;;;;;;;6.23;3.03;;;;;;;6.84;66.60;100688.05;1400377;88;21376;-79
2023/05/01 02:28:03;;;;;;;9.63;3.10;;;;;;;6.83;66.57;100685.56;1561500;88;21390;-78
2023/05/01 02:30:29;;;;;;;7.53;2.85;;;;;;;6.81;66.62;100689.61;1396374;88;21383;-78
2023/05/01 02:32:56;;;;;;;5.70;2.77;;;;;;;6.80;66.57;100687.11;1381682;90;21374;-79
2023/05/01 02:35:23;;;;;;;7.87;4.00;;;;;;;6.79;66.39;100691.54;1400977;88;22204;-78
2023/05/01 02:37:50;;;;;;;7.43;3.80;;;;;;;6.78;66.08;100690.67;1401167;88;21375;-77
2023/05/01 02:40:16;;;;;;;10.57;4.13;;;;;;;6.80;66.07;100689.26;1380589;90;22343;-78
2023/05/01 02:42:43;;;;;;;5.90;2.87;;;;;;;6.77;66.01;100684.23;1454065;91;21424;-76
2023/05/01 02:45:22;;;;;;;15.67;4.27;;;;;;;6.73;66.11;100686.72;1536932;89;21384;-78
2023/05/01 02:47:53;;;;;;;7.07;3.37;;;;;;;6.71;65.91;100693.91;1536994;89;21517;-78
2023/05/01 02:50:20;;;;;;;16.32;3.87;;;;;;;6.66;66.29;100688.98;1537068;89;21590;-77
2023/05/01 02:52:47;;;;;;;5.20;3.13;;;;;;;6.58;66.22;100693.14;1378874;89;21398;-78
2023/05/01 02:55:14;;;;;;;22.00;3.47;;;;;;;6.52;66.50;100685.24;1380142;89;21390;-77
2023/05/01 02:57:41;;;;;;;8.70;3.60;;;;;;;6.47;66.64;100691.31;1380150;89;21450;-77
2023/05/01 03:00:12;;;;;;;5.30;2.97;;;;;;;6.43;66.54;100688.56;1380050;89;21544;-77
2023/05/01 03:02:37;;;;;;;11.27;3.80;;;;;;;6.35;67.13;100693.06;1382794;89;21589;-77
2023/05/01 03:05:03;;;;;;;8.60;2.30;;;;;;;6.31;67.29;100699.03;1454899;89;21478;-77
2023/05/01 03:07:33;;;;;;;7.73;2.90;;;;;;;6.26;67.38;100689.33;1453740;89;21470;-78
2023/05/01 03:09:57;;;;;;;6.70;3.00;;;;;;;6.22;67.45;100690.52;1449832;89;21567;-77
2023/05/01 03:12:23;;;;;;;7.93;2.73;;;;;;;6.21;67.19;100691.45;1431921;89;21879;-77
2023/05/01 03:14:50;;;;;;;6.27;2.60;;;;;;;6.20;67.40;100691.10;1456340;89;21626;-77
2023/05/01 03:17:16;;;;;;;4.73;3.27;;;;;;;6.20;67.15;100699.47;1454221;89;21412;-78
2023/05/01 03:19:42;;;;;;;7.57;3.60;;;;;;;6.22;66.44;100689.69;1458628;89;22505;-78
2023/05/01 03:22:08;;;;;;;8.67;2.83;;;;;;;6.30;65.90;100677.66;1456064;89;21530;-77
2023/05/01 03:24:34;;;;;;;9.40;3.20;;;;;;;6.37;65.59;100681.14;1457738;89;22050;-77
2023/05/01 03:27:01;;;;;;;5.90;3.13;;;;;;;6.40;65.80;100684.84;1447197;89;21486;-78
2023/05/01 03:29:28;;;;;;;7.53;3.60;;;;;;;6.40;65.80;100687.48;1456943;89;22425;-77
2023/05/01 03:31:56;;;;;;;6.93;2.90;;;;;;;6.40;65.61;100687.48;1454667;89;21545;-77
2023/05/01 03:34:22;;;;;;;8.10;3.77;;;;;;;6.39;65.59;100691.91;1457618;89;21560;-78
2023/05/01 03:36:50;;;;;;;9.17;3.63;;;;;;;6.39;65.51;100691.91;1452788;89;21743;-77
2023/05/01 03:39:16;;;;;;;6.50;3.70;;;;;;;6.39;65.51;100691.91;1449940;89;21448;-77
2023/05/01 03:41:42;;;;;;;5.37;3.10;;;;;;;6.39;65.37;100693.22;1456308;89;21574;-80
2023/05/01 03:44:09;;;;;;;7.37;2.97;;;;;;;6.38;65.23;100687.58;1464418;89;21657;-79
2023/05/01 03:46:35;;;;;;;10.40;3.10;;;;;;;6.39;65.33;100687.09;1467388;88;21630;-78
2023/05/01 03:49:01;;;;;;;8.17;3.40;;;;;;;6.41;65.46;100689.14;1467285;88;21442;-78
2023/05/01 03:51:28;;;;;;;4.47;2.63;;;;;;;6.38;65.07;100689.38;1413559;92;21568;-78
2023/05/01 03:53:57;;;;;;;6.37;2.77;;;;;;;6.40;64.46;100696.69;1468485;89;22351;-78
2023/05/01 03:56:25;;;;;;;5.60;2.87;;;;;;;6.42;64.80;100701.36;1445765;89;21530;-79
2023/05/01 03:58:52;;;;;;;5.83;2.83;;;;;;;6.39;65.08;100697.16;1471345;89;21610;-79
2023/05/01 04:01:18;;;;;;;6.20;2.60;;;;;;;6.38;65.24;100686.75;1450617;89;21508;-79
2023/05/01 04:03:45;;;;;;;8.53;2.70;;;;;;;6.38;64.71;100688.89;1444357;89;22351;-79
2023/05/01 04:06:12;;;;;;;5.30;2.53;;;;;;;6.44;64.30;100696.80;1412521;92;21494;-79
2023/05/01 04:08:39;;;;;;;4.70;2.67;;;;;;;6.49;64.37;100702.56;1447565;89;21626;-80
2023/05/01 04:11:05;;;;;;;7.27;2.90;;;;;;;6.55;64.38;100704.73;1447435;89;21405;-79
2023/05/01 04:13:31;;;;;;;9.43;3.27;;;;;;;6.56;63.13;100703.80;1443964;89;23327;-80
2023/05/01 04:15:58;;;;;;;7.67;3.10;;;;;;;6.65;64.33;100707.53;1414064;91;21458;-80
2023/05/01 04:18:25;;;;;;;12.63;3.10;;;;;;;6.66;63.10;100706.08;1444236;89;21516;-80
2023/05/01 04:20:51;;;;;;;9.67;2.87;;;;;;;6.72;63.84;100709.56;1451849;89;22351;-80
2023/05/01 04:23:17;;;;;;;4.30;2.47;;;;;;;6.76;63.53;100705.77;1473260;88;21457;-80
2023/05/01 04:25:44;;;;;;;8.03;3.63;;;;;;;6.82;63.49;100703.59;1450846;89;22614;-80
2023/05/01 04:28:11;;;;;;;6.50;2.60;;;;;;;6.87;63.12;100711.98;1467285;89;21560;-80
2023/05/01 04:30:38;;;;;;;6.80;3.63;;;;;;;6.93;62.64;100716.77;1466585;89;21500;-81
2023/05/01 04:33:10;;;;;;;9.43;3.50;;;;;;;7.03;63.54;100707.72;1414917;92;21480;-79
2023/05/01 04:35:32;;;;;;;5.10;2.67;;;;;;;7.11;62.81;100708.80;1465796;89;21530;-80
2023/05/01 04:37:58;;;;;;;9.00;2.60;;;;;;;7.17;62.05;100708.81;1401232;92;21718;-80
2023/05/01 04:40:24;;;;;;;11.00;3.50;;;;;;;7.23;61.05;100706.53;1470669;88;21574;-79
2023/05/01 04:42:51;;;;;;;8.67;2.80;;;;;;;7.32;61.54;100710.23;1402128;92;21524;-79
2023/05/01 04:45:18;;;;;;;4.50;2.37;;;;;;;7.41;60.94;100713.95;1424504;91;21638;-79
2023/05/01 04:47:44;;;;;;;6.53;2.90;;;;;;;7.48;60.13;100711.66;1427187;91;21494;-79
2023/05/01 04:50:11;;;;;;;5.70;2.60;;;;;;;7.58;60.92;100713.45;1453978;88;22337;-79
2023/05/01 04:52:37;;;;;;;9.23;2.80;;;;;;;7.66;60.09;100705.79;1420171;92;21458;-79
2023/05/01 04:55:04;;;;;;;6.23;2.33;;;;;;;7.75;60.66;100707.34;1422475;92;21626;-77
2023/05/01 04:57:30;;;;;;;7.43;3.60;;;;;;;7.82;59.48;100706.70;1420727;91;21442;-78
2023/05/01 04:59:57;;;;;;;6.83;3.10;;;;;;;7.93;60.71;100711.12;1423185;91;21486;-78
2023/05/01 05:02:24;;;;;;;4.07;2.57;;;;;;;7.97;58.50;100704.66;1416458;91;21562;-77
2023/05/01 05:04:52;;;;;;;7.67;2.60;;;;;;;8.07;59.88;100708.20;1421546;92;21458;-77
2023/05/01 05:07:19;;;;;;;10.70;2.77;;;;;;;8.17;59.46;100708.77;1419171;92;22464;-77
2023/05/01 05:09:46;;;;;;;7.27;2.93;;;;;;;8.27;59.57;100705.75;1479738;88;21642;-77
2023/05/01 05:12:13;;;;;;;7.70;2.77;;;;;;;8.38;58.61;100706.20;1424412;92;21510;-78
2023/05/01 05:14:42;;;;;;;10.27;6.40;;;;;;;8.46;58.65;100701.13;1426010;92;21465;-78
2023/05/01 05:17:08;;;;;;;8.13;3.07;;;;;;;8.58;58.71;100705.41;1400002;88;21428;-78
2023/05/01 05:19:35;;;;;;;6.43;3.17;;;;;;;8.69;58.85;100707.98;1396184;88;21375;-79
2023/05/01 05:22:02;;;;;;;5.77;3.43;;;;;;;8.80;58.28;100705.75;1396057;88;21479;-80
2023/05/01 05:24:29;;;;;;;8.57;4.17;;;;;;;8.89;57.41;100703.67;1501536;91;21562;-80
2023/05/01 05:26:55;;;;;;;8.20;3.90;;;;;;;8.95;57.09;100699.19;1379600;89;21413;-78
2023/05/01 05:29:21;;;;;;;8.23;3.63;;;;;;;9.03;56.77;100700.70;1466242;88;22949;-78
2023/05/01 05:31:48;;;;;;;10.30;3.30;;;;;;;9.14;57.25;100706.84;1476259;88;21908;-78
2023/05/01 05:34:14;;;;;;;10.40;2.87;;;;;;;9.25;56.46;100714.69;1422768;92;21472;-78
2023/05/01 05:36:42;;;;;;;8.23;2.90;;;;;;;9.36;55.49;100709.81;1425785;91;21479;-78
2023/05/01 05:39:08;;;;;;;8.90;3.27;;;;;;;9.48;55.17;100717.49;1499691;92;21472;-78
2023/05/01 05:41:34;;;;;;;10.80;2.87;;;;;;;9.59;55.44;100719.70;1506997;88;21563;-79
2023/05/01 05:44:01;;;;;;;13.33;3.10;;;;;;;9.71;54.98;100719.94;1497230;91;21502;-79
2023/05/01 05:46:27;;;;;;;6.93;2.43;;;;;;;9.80;55.29;100713.83;1360268;91;21406;-77
2023/05/01 05:48:54;;;;;;;4.37;2.30;;;;;;;9.92;53.69;100718.02;1370282;90;21406;-78
2023/05/01 05:51:20;;;;;;;8.07;3.10;;;;;;;10.06;52.65;100721.26;1512461;91;21369;-78
2023/05/01 05:53:46;;;;;;;4.90;2.30;;;;;;;10.16;53.07;100718.16;1364403;91;22264;-79
2023/05/01 05:56:12;;;;;;;8.77;3.17;;;;;;;10.28;52.70;100717.08;1361108;91;21370;-78
2023/05/01 05:58:38;;;;;;;6.00;2.57;;;;;;;10.39;52.57;100718.27;1364120;90;21346;-80
2023/05/01 06:01:05;;;;;;;8.60;3.87;;;;;;;10.43;50.94;100732.53;1360846;91;22426;-79
2023/05/01 06:03:32;;;;;;;6.13;2.80;;;;;;;10.53;51.61;100727.59;1363751;91;21539;-79
2023/05/01 06:06:00;;;;;;;5.13;3.30;;;;;;;10.68;51.63;100721.38;1487454;90;21583;-79
2023/05/01 06:08:26;;;;;;;7.03;2.47;;;;;;;10.87;52.70;100722.31;1364319;91;21513;-78
2023/05/01 06:10:52;;;;;;;6.13;3.43;;;;;;;11.02;51.36;100723.56;1426243;91;21515;-78
2023/05/01 06:13:18;;;;;;;11.43;5.57;;;;;;;11.07;50.52;100729.24;1429392;91;21667;-77
2023/05/01 06:15:45;;;;;;;5.33;2.30;;;;;;;11.19;50.27;100726.79;1434678;91;22381;-78
2023/05/01 06:18:11;;;;;;;7.47;3.43;;;;;;;11.34;50.42;100719.70;1429604;91;22604;-77
2023/05/01 06:20:38;;;;;;;8.53;3.03;;;;;;;11.43;51.27;100724.13;1437088;91;22054;-79
2023/05/01 06:23:04;;;;;;;9.40;3.63;;;;;;;11.58;50.28;100717.34;1435796;91;21441;-80
2023/05/01 06:25:30;;;;;;;5.03;2.40;;;;;;;11.61;48.94;100722.84;1437880;91;22402;-78
2023/05/01 06:27:57;;;;;;;7.83;3.10;;;;;;;11.70;49.42;100719.30;1436647;91;21471;-81
2023/05/01 06:30:23;;;;;;;7.30;3.13;;;;;;;11.84;50.17;100719.30;1439207;91;21689;-79
2023/05/01 06:32:49;;;;;;;3.97;2.50;;;;;;;12.01;50.07;100721.18;1436495;91;21486;-82
2023/05/01 06:35:15;;;;;;;4.50;2.10;;;;;;;12.15;50.37;100714.53;1385180;91;22925;-82
2023/05/01 06:37:42;;;;;;;10.53;4.73;;;;;;;12.32;50.26;100723.48;1433893;91;22216;-81
2023/05/01 06:40:09;;;;;;;23.03;11.00;;;;;;;12.49;50.54;100718.66;1433203;91;21486;-82
2023/05/01 06:42:38;;;;;;;8.00;4.00;;;;;;;12.63;49.06;100718.62;1415424;91;21509;-83
2023/05/01 06:45:07;;;;;;;5.70;2.63;;;;;;;12.78;48.99;100719.72;1479053;88;21462;-82
2023/05/01 06:47:33;;;;;;;8.90;3.10;;;;;;;12.91;47.50;100717.97;1427389;88;21544;-81
2023/05/01 06:50:00;;;;;;;7.00;2.10;;;;;;;12.88;46.76;100727.58;1458031;88;22388;-81
2023/05/01 06:52:27;;;;;;;5.27;2.40;;;;;;;12.94;47.61;100722.97;1434138;91;21709;-82
2023/05/01 06:54:53;;;;;;;4.63;2.23;;;;;;;12.97;46.32;100726.64;1476877;88;21463;-81
2023/05/01 06:57:22;;;;;;;6.07;2.57;;;;;;;13.16;48.56;100722.13;1476855;88;21485;-81
2023/05/01 06:59:48;;;;;;;3.80;2.23;;;;;;;13.32;45.53;100724.89;1449276;88;21516;-82
2023/05/01 07:06:13;;;;;;;7.20;2.80;;;;;;;13.59;46.25;100727.03;1512429;91;21347;-81
2023/05/01 07:08:39;;;;;;;4.67;2.20;;;;;;;13.85;45.83;100734.44;1468352;88;21501;-81
2023/05/01 07:11:06;;;;;;;6.20;2.37;;;;;;;13.74;43.17;100740.05;1479972;88;21455;-81
2023/05/01 07:13:32;;;;;;;13.63;2.17;;;;;;;13.86;44.77;100735.27;1433191;91;21737;-83
2023/05/01 07:16:01;;;;;;;9.90;2.93;;;;;;;13.96;44.94;100735.47;1480745;88;21478;-82
2023/05/01 07:18:27;;;;;;;6.43;2.00;;;;;;;14.07;42.57;100738.34;1431335;91;21553;-82
2023/05/01 07:20:53;;;;;;;2.80;2.10;;;;;;;14.09;42.40;100738.16;1481329;88;22222;-82
2023/05/01 07:23:19;;;;;;;4.03;2.30;;;;;;;14.04;43.70;100742.66;1476015;88;21397;-81
2023/05/01 07:25:46;;;;;;;13.10;6.20;;;;;;;14.05;41.77;100744.81;1458647;88;22445;-81
2023/05/01 07:28:12;;;;;;;5.00;2.87;;;;;;;14.19;44.29;100740.19;1433523;91;21450;-81
2023/05/01 07:30:38;;;;;;;7.43;2.37;;;;;;;14.27;43.42;100742.88;1455240;88;21707;-81
2023/05/01 07:33:04;;;;;;;9.97;4.67;;;;;;;14.18;41.30;100745.16;1479492;88;21500;-82
2023/05/01 07:35:31;;;;;;;4.93;2.60;;;;;;;14.40;44.63;100744.53;1481319;88;21456;-80
2023/05/01 07:37:57;;;;;;;8.17;2.70;;;;;;;14.52;43.22;100736.25;1486977;88;21597;-82
2023/05/01 07:40:24;;;;;;;9.60;4.00;;;;;;;14.51;41.41;100735.40;1478697;88;22314;-79
2023/05/01 07:42:50;;;;;;;6.07;4.00;;;;;;;14.66;43.00;100740.92;1483756;88;22366;-84
2023/05/01 07:45:17;;;;;;;7.17;2.50;;;;;;;14.71;42.64;100737.27;1453460;88;21463;-81
2023/05/01 07:47:43;;;;;;;3.93;2.37;;;;;;;14.83;41.28;100730.59;1434534;91;21442;-80
2023/05/01 07:50:11;;;;;;;6.03;3.00;;;;;;;15.05;42.72;100728.25;1456279;88;21692;-81
2023/05/01 07:52:38;;;;;;;6.80;3.50;;;;;;;15.32;43.14;100731.83;1380633;90;21405;-81
2023/05/01 07:55:06;;;;;;;4.97;2.60;;;;;;;15.53;43.05;100729.09;1359726;91;21540;-82
2023/05/01 07:57:32;;;;;;;10.87;2.63;;;;;;;15.72;42.34;100722.05;1419028;88;21530;-82
2023/05/01 08:00:00;;;;;;;5.77;2.70;;;;;;;15.85;42.71;100718.80;1431828;91;22663;-81
2023/05/01 08:02:26;;;;;;;5.03;2.90;;;;;;;16.04;41.57;100720.72;1479022;88;21455;-81
2023/05/01 08:04:53;;;;;;;4.63;2.17;;;;;;;16.04;40.88;100714.87;1432702;91;22541;-82
2023/05/01 08:07:19;;;;;;;3.57;2.47;;;;;;;16.15;40.59;100723.81;1478950;88;22536;-81
2023/05/01 08:09:46;;;;;;;4.37;2.33;;;;;;;16.20;39.27;100724.13;1455526;88;21499;-82
2023/05/01 08:12:13;;;;;;;6.23;2.23;;;;;;;16.32;40.26;100719.70;1431592;91;21531;-81
2023/05/01 08:14:39;;;;;;;7.13;2.23;;;;;;;16.54;41.08;100717.51;1479958;88;21596;-82
2023/05/01 08:17:05;;;;;;;4.53;2.53;;;;;;;16.40;38.91;100715.14;1481705;88;21456;-81
2023/05/01 08:19:32;;;;;;;6.60;2.67;;;;;;;16.24;39.61;100712.06;1478362;88;21456;-81
2023/05/01 08:21:58;;;;;;;3.87;2.10;;;;;;;16.49;40.87;100710.56;1431402;91;22529;-81
2023/05/01 08:24:24;;;;;;;4.97;2.13;;;;;;;16.56;38.64;100719.50;1479909;88;21374;-82
2023/05/01 08:26:51;;;;;;;5.67;2.53;;;;;;;16.84;41.40;100718.97;1457706;88;21641;-81
2023/05/01 08:29:17;;;;;;;10.13;2.97;;;;;;;17.03;39.03;100710.92;1434294;91;21493;-81
2023/05/01 08:31:44;;;;;;;5.23;2.50;;;;;;;16.98;38.43;100709.33;1480173;88;21432;-81
2023/05/01 08:34:10;;;;;;;4.23;2.20;;;;;;;17.18;39.03;100717.64;1478649;88;22505;-82
2023/05/01 08:36:37;;;;;;;6.47;2.83;;;;;;;17.39;39.79;100717.72;1480557;88;21515;-82
2023/05/01 08:39:04;;;;;;;12.13;4.87;;;;;;;17.43;38.02;100720.85;1478380;88;22254;-82
2023/05/01 08:41:31;;;;;;;3.57;2.57;;;;;;;17.49;39.00;100720.96;1431178;91;21545;-82
2023/05/01 08:44:02;;;;;;;3.97;1.83;;;;;;;17.66;37.07;100723.41;1473898;88;21536;-81
2023/05/01 08:46:51;;;;;;;9.25;2.92;;;;;;;17.90;38.94;100719.13;1474099;88;22336;-81
2023/05/01 08:49:19;;;;;;;6.13;2.57;;;;;;;18.37;40.13;100720.43;1462360;88;21397;-82
2023/05/01 08:51:55;;;;;;;4.97;2.40;;;;;;;18.37;40.13;100720.43;1455821;88;21863;-83
2023/05/01 08:54:23;;;;;;;12.73;2.53;;;;;;;18.51;36.32;100712.53;1470394;88;21501;-81
2023/05/01 08:56:52;;;;;;;9.57;3.87;;;;;;;18.38;37.34;100709.20;1429333;91;21545;-82
2023/05/01 08:59:20;;;;;;;7.85;2.22;;;;;;;18.60;38.44;100708.69;1473155;88;21450;-82
2023/05/01 09:01:47;;;;;;;10.90;2.57;;;;;;;18.80;39.28;100705.67;1425872;91;21671;-81
2023/05/01 09:04:15;;;;;;;5.03;2.47;;;;;;;19.04;38.87;100708.94;1476392;88;21449;-82
2023/05/01 09:06:43;;;;;;;3.65;2.30;;;;;;;19.25;39.09;100699.98;1471083;88;21597;-81
2023/05/01 09:09:09;;;;;;;8.10;2.37;;;;;;;19.46;38.18;100707.13;1472199;88;21485;-82
2023/05/01 09:11:36;;;;;;;7.67;2.70;;;;;;;19.69;38.66;100707.67;1474736;88;22410;-82
2023/05/01 09:14:07;;;;;;;4.60;2.92;;;;;;;19.42;34.70;100707.19;1456906;88;21442;-82
2023/05/01 09:16:33;;;;;;;5.78;2.35;;;;;;;19.10;35.89;100703.63;1459641;88;21478;-82
2023/05/01 09:19:00;;;;;;;4.28;2.27;;;;;;;19.02;35.37;100702.44;1474142;88;21434;-82
2023/05/01 09:25:25;;;;;;;9.68;3.42;;;;;;;19.23;37.48;100704.73;1506520;91;21377;-82
2023/05/01 09:27:51;;;;;;;8.35;2.45;;;;;;;19.54;36.46;100697.57;1426125;88;22536;-82
2023/05/01 09:30:34;;;;;;;5.65;2.00;;;;;;;19.63;36.20;100693.67;1472038;88;21494;-82
2023/05/01 09:33:10;;;;;;;6.92;2.80;;;;;;;19.58;36.27;100692.09;1427643;91;21554;-85
2023/05/01 09:35:55;;;;;;;3.77;2.20;;;;;;;19.77;37.62;100702.13;1466982;88;21567;-83
2023/05/01 09:38:25;;;;;;;4.83;2.87;;;;;;;20.04;36.08;100704.89;1472790;88;21449;-82
2023/05/01 09:40:57;;;;;;;18.55;2.87;;;;;;;20.04;35.88;100693.62;1473964;88;22170;-80
2023/05/01 09:43:28;;;;;;;3.35;2.25;;;;;;;20.20;36.38;100699.14;1506512;91;21429;-80
2023/05/01 09:46:08;;;;;;;6.30;3.02;;;;;;;20.38;35.82;100692.34;1479699;88;21434;-82
2023/05/01 09:48:36;;;;;;;7.00;2.75;;;;;;;20.36;34.77;100691.27;1473974;88;21382;-82
2023/05/01 09:51:25;;;;;;;6.08;2.55;;;;;;;20.12;34.54;100691.27;1471594;88;21604;-81
2023/05/01 09:53:54;;;;;;;5.07;2.40;;;;;;;20.22;35.92;100694.37;1427996;91;21406;-82
2023/05/01 09:56:21;;;;;;;6.45;2.98;;;;;;;20.39;34.86;100688.61;1474423;88;21567;-81
2023/05/01 09:58:51;;;;;;;5.12;2.60;;;;;;;20.37;35.26;100682.60;1470141;88;21449;-81
2023/05/01 10:01:17;;;;;;;7.78;3.15;;;;;;;20.48;36.01;100682.84;1492201;88;22410;-82
2023/05/01 10:03:44;;;;;;;11.43;2.67;;;;;;;20.75;35.65;100679.34;1506475;91;22273;-82
2023/05/01 10:06:11;;;;;;;6.78;3.22;;;;;;;20.76;33.51;100676.43;1403619;88;21451;-81
2023/05/01 10:08:45;;;;;;;6.65;2.00;;;;;;;20.97;36.15;100671.33;1557835;88;21332;-81
2023/05/01 10:11:11;;;;;;;9.05;3.35;;;;;;;21.16;35.47;100671.80;1355753;91;22153;-82
2023/05/01 10:13:38;;;;;;;7.33;4.85;;;;;;;21.15;34.99;100669.34;1470460;88;21612;-82
2023/05/01 10:16:06;;;;;;;6.35;2.37;;;;;;;21.32;34.98;100668.33;1457436;88;21436;-81
2023/05/01 10:18:34;;;;;;;5.00;2.37;;;;;;;21.44;35.27;100672.06;1422272;91;21597;-81
2023/05/01 10:21:02;;;;;;;9.43;2.92;;;;;;;21.61;34.95;100674.58;1473010;88;22426;-82
2023/05/01 10:23:30;;;;;;;15.38;8.60;;;;;;;21.39;31.33;100663.80;1427308;91;21487;-82
2023/05/01 10:25:59;;;;;;;32.38;21.68;;;;;;;21.39;31.33;100663.80;1472361;88;21492;-81
2023/05/01 10:28:27;;;;;;;24.00;15.88;;;;;;;21.24;34.42;100668.59;1474496;88;21574;-81
2023/05/01 10:30:56;;;;;;;7.17;5.25;;;;;;;21.24;34.42;100668.59;1471768;88;21656;-82
2023/05/01 10:33:22;;;;;;;5.25;2.70;;;;;;;21.28;33.62;100664.42;1474882;88;21427;-81
2023/05/01 10:35:55;;;;;;;4.05;2.55;;;;;;;21.32;32.96;100661.11;1458508;88;21523;-82
2023/05/01 10:38:26;;;;;;;4.78;2.60;;;;;;;21.19;33.55;100664.66;1474040;88;22642;-82
2023/05/01 10:40:53;;;;;;;10.68;3.67;;;;;;;21.15;32.24;100661.27;1427440;91;21450;-82
2023/05/01 10:43:28;;;;;;;15.40;11.50;;;;;;;21.07;34.00;100662.31;1470939;88;21412;-82
2023/05/01 10:46:17;;;;;;;13.83;10.18;;;;;;;21.22;34.10;100662.58;1538974;88;21515;-82
2023/05/01 10:48:52;;;;;;;28.98;17.65;;;;;;;21.27;33.71;100664.95;1472302;88;21523;-81
2023/05/01 10:51:24;;;;;;;17.60;8.43;;;;;;;21.25;33.24;100655.42;1475175;88;21596;-81
2023/05/01 10:54:15;;;;;;;6.53;3.55;;;;;;;21.47;35.35;100656.83;1379770;90;21345;-81
2023/05/01 10:56:42;;;;;;;10.90;3.00;;;;;;;21.99;33.41;100662.97;1449905;88;21389;-82
2023/05/01 10:59:10;;;;;;;6.03;3.12;;;;;;;21.99;33.41;100662.97;1473382;88;21487;-82
2023/05/01 11:01:43;;;;;;;7.35;3.33;;;;;;;22.12;33.32;100657.19;1425111;91;22587;-82
2023/05/01 11:04:28;;;;;;;2.77;2.45;;;;;;;21.86;32.98;100657.66;1475884;88;22520;-81
2023/05/01 11:07:09;;;;;;;3.55;2.70;;;;;;;21.86;32.98;100657.66;1472678;88;21478;-81
2023/05/01 11:09:46;;;;;;;3.85;2.62;;;;;;;22.04;32.96;100655.59;1427335;91;21641;-83
2023/05/01 11:12:14;;;;;;;8.73;2.77;;;;;;;22.20;33.39;100644.30;1472793;88;21463;-83
2023/05/01 11:15:05;;;;;;;11.60;7.50;;;;;;;22.51;32.97;100648.82;1471519;88;21456;-83
2023/05/01 11:17:44;;;;;;;3.67;3.10;;;;;;;22.57;32.39;100643.06;1472705;88;21441;-83
2023/05/01 11:20:23;;;;;;;3.43;2.30;;;;;;;22.61;32.33;100648.84;1475436;88;22240;-83
2023/05/01 11:22:52;;;;;;;5.78;2.83;;;;;;;22.84;32.76;100649.55;1426226;91;21756;-83
2023/05/01 11:25:26;;;;;;;10.90;4.08;;;;;;;22.92;32.34;100641.98;1541043;88;21508;-84
2023/05/01 11:27:59;;;;;;;6.10;2.75;;;;;;;22.67;30.61;100641.20;1507065;91;21355;-81
2023/05/01 11:30:26;;;;;;;10.05;3.30;;;;;;;22.72;31.42;100645.41;1557860;88;22197;-82
2023/05/01 11:32:52;;;;;;;3.37;2.15;;;;;;;22.86;32.39;100636.67;1397480;88;21309;-83
2023/05/01 11:35:27;;;;;;;5.72;3.30;;;;;;;22.97;30.57;100631.38;1383680;89;21383;-83
2023/05/01 11:37:56;;;;;;;5.10;2.17;;;;;;;22.93;30.43;100627.47;1551948;88;21427;-83
2023/05/01 11:40:26;;;;;;;6.03;3.02;;;;;;;22.41;30.93;100626.94;1556334;88;21324;-82
2023/05/01 11:43:05;;;;;;;6.28;2.80;;;;;;;22.32;31.29;100626.06;1393968;88;21434;-84